sensor_id;sensor_type;location;lat;lon;timestamp;P1;durP1;ratioP1;P2;durP2;ratioP2
72575;SDS011;60613;48.658;2.328;2022-12-18T07:02:38;12.43;;;6.80;;
72575;SDS011;60613;48.658;2.328;2022-12-18T07:05:04;12.13;;;7.03;;
72575;SDS011;60613;48.658;2.328;2022-12-18T07:07:30;12.07;;;6.88;;
72575;SDS011;60613;48.658;2.328;2022-12-18T07:09:55;10.98;;;6.43;;
72575;SDS011;60613;48.658;2.328;2022-12-18T07:12:21;11.47;;;7.00;;
72575;SDS011;60613;48.658;2.328;2022-12-18T07:14:46;11.93;;;7.07;;
72575;SDS011;60613;48.658;2.328;2022-12-18T07:17:12;11.70;;;6.72;;
72575;SDS011;60613;48.658;2.328;2022-12-18T07:19:38;12.20;;;6.83;;
72575;SDS011;60613;48.658;2.328;2022-12-18T07:22:03;12.07;;;6.57;;
72575;SDS011;60613;48.658;2.328;2022-12-18T07:24:29;11.57;;;6.40;;
72575;SDS011;60613;48.658;2.328;2022-12-18T07:26:54;11.60;;;6.75;;
72575;SDS011;60613;48.658;2.328;2022-12-18T07:29:20;11.80;;;6.83;;
72575;SDS011;60613;48.658;2.328;2022-12-18T07:31:46;10.80;;;6.60;;
72575;SDS011;60613;48.658;2.328;2022-12-18T07:34:12;11.37;;;6.37;;
72575;SDS011;60613;48.658;2.328;2022-12-18T07:36:38;12.00;;;6.75;;
72575;SDS011;60613;48.658;2.328;2022-12-18T07:39:04;10.88;;;6.60;;
72575;SDS011;60613;48.658;2.328;2022-12-18T07:41:30;11.73;;;7.00;;
72575;SDS011;60613;48.658;2.328;2022-12-18T07:43:55;11.70;;;7.03;;
72575;SDS011;60613;48.658;2.328;2022-12-18T07:46:21;12.33;;;7.23;;
72575;SDS011;60613;48.658;2.328;2022-12-18T07:48:47;11.07;;;6.55;;
72575;SDS011;60613;48.658;2.328;2022-12-18T07:51:13;14.07;;;8.30;;
72575;SDS011;60613;48.658;2.328;2022-12-18T07:53:39;22.42;;;14.98;;
72575;SDS011;60613;48.658;2.328;2022-12-18T07:56:06;23.45;;;16.13;;
72575;SDS011;60613;48.658;2.328;2022-12-18T07:58:35;25.80;;;16.92;;
72575;SDS011;60613;48.658;2.328;2022-12-18T08:03:31;26.93;;;17.73;;
72575;SDS011;60613;48.658;2.328;2022-12-18T08:06:03;26.95;;;18.08;;
72575;SDS011;60613;48.658;2.328;2022-12-18T08:08:31;26.98;;;16.70;;
72575;SDS011;60613;48.658;2.328;2022-12-18T08:10:58;23.05;;;14.70;;
72575;SDS011;60613;48.658;2.328;2022-12-18T08:13:24;18.77;;;12.33;;
72575;SDS011;60613;48.658;2.328;2022-12-18T08:15:59;19.58;;;11.43;;
72575;SDS011;60613;48.658;2.328;2022-12-18T08:18:29;17.88;;;11.18;;
72575;SDS011;60613;48.658;2.328;2022-12-18T08:20:57;17.60;;;10.75;;
72575;SDS011;60613;48.658;2.328;2022-12-18T08:23:31;16.70;;;10.00;;
72575;SDS011;60613;48.658;2.328;2022-12-18T08:25:58;18.38;;;9.95;;
72575;SDS011;60613;48.658;2.328;2022-12-18T08:28:23;17.70;;;10.35;;
72575;SDS011;60613;48.658;2.328;2022-12-18T08:33:24;17.30;;;9.35;;
72575;SDS011;60613;48.658;2.328;2022-12-18T08:35:50;15.47;;;9.23;;
72575;SDS011;60613;48.658;2.328;2022-12-18T08:38:15;14.90;;;9.27;;
72575;SDS011;60613;48.658;2.328;2022-12-18T08:40:41;15.67;;;9.50;;
72575;SDS011;60613;48.658;2.328;2022-12-18T08:43:07;14.63;;;8.97;;
72575;SDS011;60613;48.658;2.328;2022-12-18T08:45:53;13.47;;;8.37;;
72575;SDS011;60613;48.658;2.328;2022-12-18T08:48:19;13.95;;;8.50;;
72575;SDS011;60613;48.658;2.328;2022-12-18T08:50:53;13.80;;;8.50;;
72575;SDS011;60613;48.658;2.328;2022-12-18T08:53:20;13.85;;;8.73;;
72575;SDS011;60613;48.658;2.328;2022-12-18T08:55:45;14.73;;;8.43;;
72575;SDS011;60613;48.658;2.328;2022-12-18T08:58:11;13.77;;;7.90;;
72575;SDS011;60613;48.658;2.328;2022-12-18T09:00:36;13.47;;;8.30;;
72575;SDS011;60613;48.658;2.328;2022-12-18T09:03:02;14.63;;;8.05;;
72575;SDS011;60613;48.658;2.328;2022-12-18T09:05:28;12.60;;;7.93;;
72575;SDS011;60613;48.658;2.328;2022-12-18T09:07:53;12.10;;;7.65;;
72575;SDS011;60613;48.658;2.328;2022-12-18T09:10:19;12.77;;;8.00;;
72575;SDS011;60613;48.658;2.328;2022-12-18T09:12:44;14.13;;;7.80;;
72575;SDS011;60613;48.658;2.328;2022-12-18T09:15:10;16.67;;;8.20;;
72575;SDS011;60613;48.658;2.328;2022-12-18T09:17:36;12.77;;;7.35;;
72575;SDS011;60613;48.658;2.328;2022-12-18T09:20:02;13.90;;;7.87;;
72575;SDS011;60613;48.658;2.328;2022-12-18T09:22:27;13.30;;;7.80;;
72575;SDS011;60613;48.658;2.328;2022-12-18T09:24:53;12.40;;;7.40;;
72575;SDS011;60613;48.658;2.328;2022-12-18T09:27:19;12.37;;;7.77;;
72575;SDS011;60613;48.658;2.328;2022-12-18T09:29:45;13.00;;;7.70;;
72575;SDS011;60613;48.658;2.328;2022-12-18T09:32:10;13.02;;;7.45;;
72575;SDS011;60613;48.658;2.328;2022-12-18T09:34:36;12.30;;;7.20;;
72575;SDS011;60613;48.658;2.328;2022-12-18T09:37:01;12.73;;;7.75;;
72575;SDS011;60613;48.658;2.328;2022-12-18T09:39:27;11.37;;;6.80;;
72575;SDS011;60613;48.658;2.328;2022-12-18T09:41:53;14.43;;;7.13;;
72575;SDS011;60613;48.658;2.328;2022-12-18T09:44:29;12.53;;;7.40;;
72575;SDS011;60613;48.658;2.328;2022-12-18T09:47:03;13.00;;;7.60;;
72575;SDS011;60613;48.658;2.328;2022-12-18T09:49:55;13.07;;;7.13;;
72575;SDS011;60613;48.658;2.328;2022-12-18T09:52:26;13.45;;;7.50;;
72575;SDS011;60613;48.658;2.328;2022-12-18T09:55:05;10.98;;;6.57;;
72575;SDS011;60613;48.658;2.328;2022-12-18T09:57:42;12.93;;;7.00;;
72575;SDS011;60613;48.658;2.328;2022-12-18T10:00:16;11.95;;;6.80;;
72575;SDS011;60613;48.658;2.328;2022-12-18T10:02:44;13.23;;;6.95;;
72575;SDS011;60613;48.658;2.328;2022-12-18T10:05:15;13.63;;;7.20;;
72575;SDS011;60613;48.658;2.328;2022-12-18T10:13:15;12.93;;;7.03;;
72575;SDS011;60613;48.658;2.328;2022-12-18T10:16:15;13.02;;;6.93;;
72575;SDS011;60613;48.658;2.328;2022-12-18T10:21:42;10.82;;;6.40;;
72575;SDS011;60613;48.658;2.328;2022-12-18T10:26:47;12.23;;;6.65;;
72575;SDS011;60613;48.658;2.328;2022-12-18T10:29:14;10.93;;;6.35;;
72575;SDS011;60613;48.658;2.328;2022-12-18T10:31:41;11.53;;;6.53;;
72575;SDS011;60613;48.658;2.328;2022-12-18T10:34:10;12.63;;;7.10;;
72575;SDS011;60613;48.658;2.328;2022-12-18T10:36:37;12.20;;;6.30;;
72575;SDS011;60613;48.658;2.328;2022-12-18T10:39:20;11.18;;;6.47;;
72575;SDS011;60613;48.658;2.328;2022-12-18T10:41:51;11.82;;;6.40;;
72575;SDS011;60613;48.658;2.328;2022-12-18T10:44:18;12.13;;;6.60;;
72575;SDS011;60613;48.658;2.328;2022-12-18T10:46:48;12.88;;;6.63;;
72575;SDS011;60613;48.658;2.328;2022-12-18T10:49:33;11.90;;;6.63;;
72575;SDS011;60613;48.658;2.328;2022-12-18T10:52:17;11.20;;;6.30;;
72575;SDS011;60613;48.658;2.328;2022-12-18T10:55:17;12.00;;;6.43;;
72575;SDS011;60613;48.658;2.328;2022-12-18T10:57:41;10.17;;;6.00;;
72575;SDS011;60613;48.658;2.328;2022-12-18T11:00:26;12.88;;;7.78;;
72575;SDS011;60613;48.658;2.328;2022-12-18T11:02:54;12.00;;;6.40;;
72575;SDS011;60613;48.658;2.328;2022-12-18T11:05:28;10.23;;;5.80;;
72575;SDS011;60613;48.658;2.328;2022-12-18T11:07:59;11.55;;;6.00;;
72575;SDS011;60613;48.658;2.328;2022-12-18T11:10:26;10.43;;;5.68;;
72575;SDS011;60613;48.658;2.328;2022-12-18T11:12:55;9.80;;;6.05;;
72575;SDS011;60613;48.658;2.328;2022-12-18T11:15:33;9.55;;;5.50;;
72575;SDS011;60613;48.658;2.328;2022-12-18T11:17:59;10.40;;;5.80;;
72575;SDS011;60613;48.658;2.328;2022-12-18T11:23:03;10.68;;;5.95;;
72575;SDS011;60613;48.658;2.328;2022-12-18T11:25:35;9.97;;;5.80;;
72575;SDS011;60613;48.658;2.328;2022-12-18T11:30:29;10.80;;;6.20;;
72575;SDS011;60613;48.658;2.328;2022-12-18T11:40:51;10.32;;;5.82;;
72575;SDS011;60613;48.658;2.328;2022-12-18T11:43:26;11.88;;;6.10;;
72575;SDS011;60613;48.658;2.328;2022-12-18T11:49:39;10.77;;;5.78;;
72575;SDS011;60613;48.658;2.328;2022-12-18T11:54:45;9.27;;;5.50;;
72575;SDS011;60613;48.658;2.328;2022-12-18T12:05:36;10.25;;;5.82;;
72575;SDS011;60613;48.658;2.328;2022-12-18T12:08:18;9.98;;;5.82;;
72575;SDS011;60613;48.658;2.328;2022-12-18T12:18:36;10.30;;;5.97;;
72575;SDS011;60613;48.658;2.328;2022-12-18T12:26:50;12.40;;;5.57;;
72575;SDS011;60613;48.658;2.328;2022-12-18T12:38:25;9.85;;;5.93;;
72575;SDS011;60613;48.658;2.328;2022-12-18T12:41:05;9.93;;;5.67;;
72575;SDS011;60613;48.658;2.328;2022-12-18T12:43:55;10.80;;;6.20;;
72575;SDS011;60613;48.658;2.328;2022-12-18T12:46:23;10.05;;;5.90;;
72575;SDS011;60613;48.658;2.328;2022-12-18T12:48:58;12.38;;;5.90;;
72575;SDS011;60613;48.658;2.328;2022-12-18T12:51:32;10.13;;;5.90;;
72575;SDS011;60613;48.658;2.328;2022-12-18T12:54:03;10.07;;;5.97;;
72575;SDS011;60613;48.658;2.328;2022-12-18T12:56:51;11.25;;;5.80;;
72575;SDS011;60613;48.658;2.328;2022-12-18T13:08:26;11.00;;;5.87;;
72575;SDS011;60613;48.658;2.328;2022-12-18T13:10:53;12.48;;;6.05;;
72575;SDS011;60613;48.658;2.328;2022-12-18T13:13:49;11.50;;;6.10;;
72575;SDS011;60613;48.658;2.328;2022-12-18T13:16:19;10.57;;;6.00;;
72575;SDS011;60613;48.658;2.328;2022-12-18T13:18:50;11.13;;;6.13;;
72575;SDS011;60613;48.658;2.328;2022-12-18T13:21:29;11.10;;;5.80;;
72575;SDS011;60613;48.658;2.328;2022-12-18T13:23:57;12.10;;;6.32;;
72575;SDS011;60613;48.658;2.328;2022-12-18T13:26:45;10.48;;;6.30;;
72575;SDS011;60613;48.658;2.328;2022-12-18T13:29:10;10.23;;;6.00;;
72575;SDS011;60613;48.658;2.328;2022-12-18T13:34:16;11.07;;;6.50;;
72575;SDS011;60613;48.658;2.328;2022-12-18T13:36:46;9.83;;;5.57;;
72575;SDS011;60613;48.658;2.328;2022-12-18T13:41:44;10.70;;;6.32;;
72575;SDS011;60613;48.658;2.328;2022-12-18T13:46:44;10.67;;;5.73;;
72575;SDS011;60613;48.658;2.328;2022-12-18T13:51:50;9.80;;;5.97;;
72575;SDS011;60613;48.658;2.328;2022-12-18T13:54:33;10.20;;;6.25;;
72575;SDS011;60613;48.658;2.328;2022-12-18T13:57:02;9.90;;;5.80;;
72575;SDS011;60613;48.658;2.328;2022-12-18T13:59:36;10.32;;;6.13;;
72575;SDS011;60613;48.658;2.328;2022-12-18T14:04:44;10.02;;;5.80;;
72575;SDS011;60613;48.658;2.328;2022-12-18T14:07:15;10.52;;;5.80;;
72575;SDS011;60613;48.658;2.328;2022-12-18T14:09:53;10.30;;;5.87;;
72575;SDS011;60613;48.658;2.328;2022-12-18T14:12:25;9.60;;;5.95;;
72575;SDS011;60613;48.658;2.328;2022-12-18T14:17:54;10.32;;;5.90;;
72575;SDS011;60613;48.658;2.328;2022-12-18T14:20:24;10.20;;;6.03;;
72575;SDS011;60613;48.658;2.328;2022-12-18T14:22:51;10.20;;;5.67;;
72575;SDS011;60613;48.658;2.328;2022-12-18T14:25:18;8.95;;;5.40;;
72575;SDS011;60613;48.658;2.328;2022-12-18T14:28:02;9.07;;;5.40;;
72575;SDS011;60613;48.658;2.328;2022-12-18T14:33:05;9.90;;;5.50;;
72575;SDS011;60613;48.658;2.328;2022-12-18T14:35:34;9.50;;;5.53;;
72575;SDS011;60613;48.658;2.328;2022-12-18T14:38:17;10.27;;;5.88;;
72575;SDS011;60613;48.658;2.328;2022-12-18T14:40:59;9.70;;;6.10;;
72575;SDS011;60613;48.658;2.328;2022-12-18T14:43:31;9.73;;;5.40;;
72575;SDS011;60613;48.658;2.328;2022-12-18T14:45:58;8.70;;;5.40;;
72575;SDS011;60613;48.658;2.328;2022-12-18T14:48:35;10.70;;;6.33;;
72575;SDS011;60613;48.658;2.328;2022-12-18T14:51:05;10.10;;;6.47;;
72575;SDS011;60613;48.658;2.328;2022-12-18T14:53:39;11.15;;;6.45;;
72575;SDS011;60613;48.658;2.328;2022-12-18T14:56:22;11.73;;;6.32;;
72575;SDS011;60613;48.658;2.328;2022-12-18T14:58:55;10.70;;;6.45;;
72575;SDS011;60613;48.658;2.328;2022-12-18T15:01:35;10.13;;;6.40;;
72575;SDS011;60613;48.658;2.328;2022-12-18T15:04:03;9.90;;;6.10;;
72575;SDS011;60613;48.658;2.328;2022-12-18T15:06:34;9.80;;;6.18;;
72575;SDS011;60613;48.658;2.328;2022-12-18T15:09:03;10.98;;;6.35;;
72575;SDS011;60613;48.658;2.328;2022-12-18T15:11:49;10.45;;;6.45;;
72575;SDS011;60613;48.658;2.328;2022-12-18T15:14:34;10.93;;;6.57;;
72575;SDS011;60613;48.658;2.328;2022-12-18T15:17:14;10.75;;;6.68;;
72575;SDS011;60613;48.658;2.328;2022-12-18T15:19:46;11.82;;;6.70;;
72575;SDS011;60613;48.658;2.328;2022-12-18T15:22:26;10.10;;;6.40;;
72575;SDS011;60613;48.658;2.328;2022-12-18T15:24:57;12.60;;;7.10;;
72575;SDS011;60613;48.658;2.328;2022-12-18T15:27:28;10.17;;;6.27;;
72575;SDS011;60613;48.658;2.328;2022-12-18T15:32:37;10.35;;;6.60;;
72575;SDS011;60613;48.658;2.328;2022-12-18T15:37:32;10.35;;;6.22;;
72575;SDS011;60613;48.658;2.328;2022-12-18T15:39:58;11.20;;;7.00;;
72575;SDS011;60613;48.658;2.328;2022-12-18T15:42:24;10.97;;;6.47;;
72575;SDS011;60613;48.658;2.328;2022-12-18T15:45:11;10.30;;;6.32;;
72575;SDS011;60613;48.658;2.328;2022-12-18T15:47:38;9.93;;;6.50;;
72575;SDS011;60613;48.658;2.328;2022-12-18T15:50:04;10.88;;;7.00;;
72575;SDS011;60613;48.658;2.328;2022-12-18T15:52:31;10.80;;;6.80;;
72575;SDS011;60613;48.658;2.328;2022-12-18T15:55:10;10.93;;;6.97;;
72575;SDS011;60613;48.658;2.328;2022-12-18T15:57:58;11.02;;;6.68;;
72575;SDS011;60613;48.658;2.328;2022-12-18T16:00:24;10.50;;;6.78;;
72575;SDS011;60613;48.658;2.328;2022-12-18T16:02:50;10.60;;;6.70;;
72575;SDS011;60613;48.658;2.328;2022-12-18T16:05:16;11.50;;;6.88;;
72575;SDS011;60613;48.658;2.328;2022-12-18T16:07:44;12.38;;;7.57;;
72575;SDS011;60613;48.658;2.328;2022-12-18T16:10:10;12.88;;;8.52;;
72575;SDS011;60613;48.658;2.328;2022-12-18T16:12:35;11.30;;;7.33;;
72575;SDS011;60613;48.658;2.328;2022-12-18T16:15:01;13.18;;;8.77;;
72575;SDS011;60613;48.658;2.328;2022-12-18T16:17:27;13.82;;;9.43;;
72575;SDS011;60613;48.658;2.328;2022-12-18T16:19:53;13.20;;;8.63;;
72575;SDS011;60613;48.658;2.328;2022-12-18T16:24:53;12.27;;;8.40;;
72575;SDS011;60613;48.658;2.328;2022-12-18T16:27:20;13.32;;;9.30;;
72575;SDS011;60613;48.658;2.328;2022-12-18T16:29:47;13.40;;;9.05;;
72575;SDS011;60613;48.658;2.328;2022-12-18T16:32:17;14.00;;;9.43;;
72575;SDS011;60613;48.658;2.328;2022-12-18T16:34:44;14.38;;;9.38;;
72575;SDS011;60613;48.658;2.328;2022-12-18T16:37:11;12.70;;;8.90;;
72575;SDS011;60613;48.658;2.328;2022-12-18T16:39:38;13.75;;;9.25;;
72575;SDS011;60613;48.658;2.328;2022-12-18T16:42:12;13.82;;;9.15;;
72575;SDS011;60613;48.658;2.328;2022-12-18T16:44:42;14.45;;;9.20;;
72575;SDS011;60613;48.658;2.328;2022-12-18T16:47:08;13.52;;;8.82;;
72575;SDS011;60613;48.658;2.328;2022-12-18T16:49:34;14.47;;;8.77;;
72575;SDS011;60613;48.658;2.328;2022-12-18T16:52:00;14.23;;;8.82;;
72575;SDS011;60613;48.658;2.328;2022-12-18T16:54:25;12.50;;;8.83;;
72575;SDS011;60613;48.658;2.328;2022-12-18T16:56:54;13.35;;;9.27;;
72575;SDS011;60613;48.658;2.328;2022-12-18T16:59:20;14.57;;;8.98;;
72575;SDS011;60613;48.658;2.328;2022-12-18T17:01:46;14.43;;;9.82;;
72575;SDS011;60613;48.658;2.328;2022-12-18T17:04:12;14.37;;;9.23;;
72575;SDS011;60613;48.658;2.328;2022-12-18T17:06:39;14.43;;;9.32;;
72575;SDS011;60613;48.658;2.328;2022-12-18T17:09:07;15.05;;;9.88;;
72575;SDS011;60613;48.658;2.328;2022-12-18T17:11:36;13.93;;;9.30;;
72575;SDS011;60613;48.658;2.328;2022-12-18T17:14:05;15.07;;;9.90;;
72575;SDS011;60613;48.658;2.328;2022-12-18T17:16:33;14.32;;;9.57;;
72575;SDS011;60613;48.658;2.328;2022-12-18T17:18:59;14.80;;;10.00;;
72575;SDS011;60613;48.658;2.328;2022-12-18T17:21:25;14.70;;;9.67;;
72575;SDS011;60613;48.658;2.328;2022-12-18T17:23:51;14.20;;;9.50;;
72575;SDS011;60613;48.658;2.328;2022-12-18T17:26:17;14.03;;;9.87;;
72575;SDS011;60613;48.658;2.328;2022-12-18T17:28:42;14.13;;;9.75;;
72575;SDS011;60613;48.658;2.328;2022-12-18T17:31:11;15.10;;;9.63;;
72575;SDS011;60613;48.658;2.328;2022-12-18T17:33:38;15.15;;;9.75;;
72575;SDS011;60613;48.658;2.328;2022-12-18T17:36:04;15.02;;;9.70;;
72575;SDS011;60613;48.658;2.328;2022-12-18T17:38:30;14.50;;;10.02;;
72575;SDS011;60613;48.658;2.328;2022-12-18T17:40:59;14.37;;;9.40;;
72575;SDS011;60613;48.658;2.328;2022-12-18T17:43:26;14.98;;;10.25;;
72575;SDS011;60613;48.658;2.328;2022-12-18T17:45:52;14.10;;;9.60;;
72575;SDS011;60613;48.658;2.328;2022-12-18T17:48:17;15.40;;;9.95;;
72575;SDS011;60613;48.658;2.328;2022-12-18T17:50:43;14.80;;;9.83;;
72575;SDS011;60613;48.658;2.328;2022-12-18T17:53:09;14.50;;;9.63;;
72575;SDS011;60613;48.658;2.328;2022-12-18T17:55:35;14.60;;;9.82;;
72575;SDS011;60613;48.658;2.328;2022-12-18T17:58:01;15.37;;;10.03;;
72575;SDS011;60613;48.658;2.328;2022-12-18T18:00:27;14.90;;;10.07;;
72575;SDS011;60613;48.658;2.328;2022-12-18T18:02:53;15.43;;;10.05;;
72575;SDS011;60613;48.658;2.328;2022-12-18T18:05:19;13.57;;;8.93;;
72575;SDS011;60613;48.658;2.328;2022-12-18T18:07:44;12.95;;;9.35;;
72575;SDS011;60613;48.658;2.328;2022-12-18T18:10:10;14.27;;;9.50;;
72575;SDS011;60613;48.658;2.328;2022-12-18T18:12:36;14.97;;;9.43;;
72575;SDS011;60613;48.658;2.328;2022-12-18T18:15:21;14.63;;;9.60;;
72575;SDS011;60613;48.658;2.328;2022-12-18T18:17:46;14.33;;;9.67;;
72575;SDS011;60613;48.658;2.328;2022-12-18T18:20:15;13.27;;;8.90;;
72575;SDS011;60613;48.658;2.328;2022-12-18T18:22:41;13.40;;;9.13;;
72575;SDS011;60613;48.658;2.328;2022-12-18T18:25:07;12.93;;;8.00;;
72575;SDS011;60613;48.658;2.328;2022-12-18T18:27:33;13.87;;;8.63;;
72575;SDS011;60613;48.658;2.328;2022-12-18T18:29:58;13.02;;;8.30;;
72575;SDS011;60613;48.658;2.328;2022-12-18T18:32:24;13.53;;;8.43;;
72575;SDS011;60613;48.658;2.328;2022-12-18T18:34:50;13.45;;;8.35;;
72575;SDS011;60613;48.658;2.328;2022-12-18T18:37:16;13.13;;;8.23;;
72575;SDS011;60613;48.658;2.328;2022-12-18T18:39:41;13.40;;;8.18;;
72575;SDS011;60613;48.658;2.328;2022-12-18T18:42:07;13.17;;;8.00;;
72575;SDS011;60613;48.658;2.328;2022-12-18T18:44:32;13.63;;;8.23;;
72575;SDS011;60613;48.658;2.328;2022-12-18T18:46:59;13.68;;;8.35;;
72575;SDS011;60613;48.658;2.328;2022-12-18T18:49:25;13.53;;;8.13;;
72575;SDS011;60613;48.658;2.328;2022-12-18T18:51:55;12.55;;;7.70;;
72575;SDS011;60613;48.658;2.328;2022-12-18T18:54:21;13.23;;;7.88;;
72575;SDS011;60613;48.658;2.328;2022-12-18T18:56:47;12.00;;;7.60;;
72575;SDS011;60613;48.658;2.328;2022-12-18T18:59:14;13.45;;;7.57;;
72575;SDS011;60613;48.658;2.328;2022-12-18T19:01:40;11.73;;;7.10;;
72575;SDS011;60613;48.658;2.328;2022-12-18T19:04:06;13.80;;;7.63;;
72575;SDS011;60613;48.658;2.328;2022-12-18T19:06:31;11.57;;;7.23;;
72575;SDS011;60613;48.658;2.328;2022-12-18T19:08:57;13.57;;;7.00;;
72575;SDS011;60613;48.658;2.328;2022-12-18T19:11:25;11.82;;;7.40;;
72575;SDS011;60613;48.658;2.328;2022-12-18T19:14:10;11.60;;;6.77;;
72575;SDS011;60613;48.658;2.328;2022-12-18T19:16:37;11.82;;;7.13;;
72575;SDS011;60613;48.658;2.328;2022-12-18T19:19:03;12.38;;;7.60;;
72575;SDS011;60613;48.658;2.328;2022-12-18T19:21:29;11.98;;;7.20;;
72575;SDS011;60613;48.658;2.328;2022-12-18T19:23:56;13.10;;;7.33;;
72575;SDS011;60613;48.658;2.328;2022-12-18T19:26:22;10.70;;;6.93;;
72575;SDS011;60613;48.658;2.328;2022-12-18T19:28:48;11.88;;;7.13;;
72575;SDS011;60613;48.658;2.328;2022-12-18T19:31:14;10.70;;;6.97;;
72575;SDS011;60613;48.658;2.328;2022-12-18T19:33:41;11.70;;;6.82;;
72575;SDS011;60613;48.658;2.328;2022-12-18T19:38:39;11.65;;;7.00;;
72575;SDS011;60613;48.658;2.328;2022-12-18T19:41:06;11.20;;;7.00;;
72575;SDS011;60613;48.658;2.328;2022-12-18T19:43:33;11.40;;;6.95;;
72575;SDS011;60613;48.658;2.328;2022-12-18T19:46:03;12.85;;;6.90;;
72575;SDS011;60613;48.658;2.328;2022-12-18T19:48:31;12.02;;;6.80;;
72575;SDS011;60613;48.658;2.328;2022-12-18T19:50:57;11.23;;;6.93;;
72575;SDS011;60613;48.658;2.328;2022-12-18T19:53:22;12.37;;;7.03;;
72575;SDS011;60613;48.658;2.328;2022-12-18T19:55:48;11.23;;;6.80;;
72575;SDS011;60613;48.658;2.328;2022-12-18T19:58:13;12.00;;;7.00;;
72575;SDS011;60613;48.658;2.328;2022-12-18T20:00:39;10.90;;;6.20;;
72575;SDS011;60613;48.658;2.328;2022-12-18T20:03:05;11.45;;;6.90;;
72575;SDS011;60613;48.658;2.328;2022-12-18T20:05:30;11.70;;;6.57;;
72575;SDS011;60613;48.658;2.328;2022-12-18T20:07:56;11.10;;;6.80;;
72575;SDS011;60613;48.658;2.328;2022-12-18T20:10:22;11.80;;;6.87;;
72575;SDS011;60613;48.658;2.328;2022-12-18T20:12:47;10.88;;;6.22;;
72575;SDS011;60613;48.658;2.328;2022-12-18T20:15:13;10.70;;;6.60;;
72575;SDS011;60613;48.658;2.328;2022-12-18T20:17:39;11.95;;;6.53;;
72575;SDS011;60613;48.658;2.328;2022-12-18T20:20:05;10.87;;;6.20;;
72575;SDS011;60613;48.658;2.328;2022-12-18T20:22:31;10.25;;;6.10;;
72575;SDS011;60613;48.658;2.328;2022-12-18T20:24:56;11.63;;;6.53;;
72575;SDS011;60613;48.658;2.328;2022-12-18T20:27:22;11.30;;;6.32;;
72575;SDS011;60613;48.658;2.328;2022-12-18T20:29:48;11.40;;;6.22;;
72575;SDS011;60613;48.658;2.328;2022-12-18T20:32:13;10.70;;;6.30;;
72575;SDS011;60613;48.658;2.328;2022-12-18T20:34:39;11.15;;;6.45;;
72575;SDS011;60613;48.658;2.328;2022-12-18T20:37:05;10.87;;;6.27;;
72575;SDS011;60613;48.658;2.328;2022-12-18T20:39:31;10.88;;;6.32;;
72575;SDS011;60613;48.658;2.328;2022-12-18T20:41:57;11.83;;;6.43;;
72575;SDS011;60613;48.658;2.328;2022-12-18T20:44:22;11.00;;;6.22;;
72575;SDS011;60613;48.658;2.328;2022-12-18T20:46:55;10.27;;;6.20;;
72575;SDS011;60613;48.658;2.328;2022-12-18T20:49:22;10.32;;;6.13;;
72575;SDS011;60613;48.658;2.328;2022-12-18T20:51:49;10.25;;;6.28;;
72575;SDS011;60613;48.658;2.328;2022-12-18T20:54:16;10.25;;;5.65;;
72575;SDS011;60613;48.658;2.328;2022-12-18T20:56:43;9.90;;;5.90;;
72575;SDS011;60613;48.658;2.328;2022-12-18T20:59:09;10.73;;;6.28;;
72575;SDS011;60613;48.658;2.328;2022-12-18T21:01:35;11.40;;;6.50;;
72575;SDS011;60613;48.658;2.328;2022-12-18T21:04:02;9.60;;;5.87;;
72575;SDS011;60613;48.658;2.328;2022-12-18T21:06:28;9.70;;;5.93;;
72575;SDS011;60613;48.658;2.328;2022-12-18T21:08:54;10.85;;;6.18;;
72575;SDS011;60613;48.658;2.328;2022-12-18T21:14:05;11.20;;;6.13;;
72575;SDS011;60613;48.658;2.328;2022-12-18T21:16:34;10.13;;;5.80;;
72575;SDS011;60613;48.658;2.328;2022-12-18T21:19:00;10.67;;;6.10;;
72575;SDS011;60613;48.658;2.328;2022-12-18T21:21:25;10.52;;;6.15;;
72575;SDS011;60613;48.658;2.328;2022-12-18T21:23:51;10.25;;;5.93;;
72575;SDS011;60613;48.658;2.328;2022-12-18T21:26:23;11.40;;;6.23;;
72575;SDS011;60613;48.658;2.328;2022-12-18T21:28:54;10.38;;;6.53;;
72575;SDS011;60613;48.658;2.328;2022-12-18T21:31:22;11.63;;;6.13;;
72575;SDS011;60613;48.658;2.328;2022-12-18T21:33:49;10.17;;;5.83;;
72575;SDS011;60613;48.658;2.328;2022-12-18T21:36:15;13.07;;;6.22;;
72575;SDS011;60613;48.658;2.328;2022-12-18T21:38:41;9.70;;;5.72;;
72575;SDS011;60613;48.658;2.328;2022-12-18T21:41:07;10.63;;;5.80;;
72575;SDS011;60613;48.658;2.328;2022-12-18T21:43:37;11.52;;;5.90;;
72575;SDS011;60613;48.658;2.328;2022-12-18T21:46:20;9.75;;;5.70;;
72575;SDS011;60613;48.658;2.328;2022-12-18T21:48:46;9.80;;;5.50;;
72575;SDS011;60613;48.658;2.328;2022-12-18T21:51:12;10.07;;;5.73;;
72575;SDS011;60613;48.658;2.328;2022-12-18T21:53:37;10.65;;;5.70;;
72575;SDS011;60613;48.658;2.328;2022-12-18T21:56:03;10.03;;;5.50;;
72575;SDS011;60613;48.658;2.328;2022-12-18T21:58:29;10.57;;;5.93;;
